Worthington, Iowa
Current Conditions -  °F | °C
As of 9:55 AM on Thursday 27 Nov 2014 (Local Time) from KMXO Reporting Station
Few Clouds Few Clouds  
Wind Chill:   Ceiling: Unl
Heat Index: 16°   Visibility: 10mi
Dew Point:   Wind: 12mph
Humidity: 73%   Direction: 320°NW
Pressure: 30.44"   Gusts: NA
Location:  42.4°N, 91.12°W
Report Text: KMXO 271555Z AUTO 32010KT 10SM FEW012 M09/M13 A3044 RMK AO2
Loading
Personal Weather Stations






























Interactive Weather Map New forecast layout! Learn more

10-Day Weather Forecast

Advertisements
Track Severe Weather on mobile